TZDO2: Arkansas Rv at SH 344 nr Tulsa, OK

                                SHEF ID:       TZDO2     Arkansas Rv at SH 344 nr Tulsa, OK
STATION TYPE:

STAGE RIV-FLOW BAT-LOAD
ft cfs volt
Ccp-Rev Ccp-Rev Ccp-Rev
(America/Chicago)
04/29 00:00 10.44 6323 12.67
04/29 01:00 10.43 6282 12.65
04/29 02:00 10.43 6282 12.63
04/29 03:00 10.43 6282 12.60
04/29 04:00 10.42 6242 12.57
04/29 05:00 10.43 6282 12.53
04/29 06:00 10.42 6242 12.52
04/29 07:00 10.42 6242 12.50
04/29 08:00 10.37 6044 12.59
04/29 09:00 10.33 5888 12.70
04/29 10:00 10.42 6242 12.80
04/29 11:00 10.40 6162 12.93
04/29 12:00 10.36 6005 13.32
04/29 13:00 10.23 5510 13.52
04/29 14:00 9.97 4599 13.16
04/29 15:00 9.74 3878 13.08
04/29 16:00 9.41 2975 13.03
04/29 17:00 9.23 2544 13.02
04/29 18:00 9.26 2613 12.96
04/29 19:00 9.55 3340 12.96
04/29 20:00 9.87 4276 12.94
04/29 21:00 10.14 5183 12.79
04/29 22:00 10.25 5584 12.74
04/29 23:00 ---- ---- ----
Data processed at Thu 30Apr2026 04:51 GMT

NOTICE: If you are parsing this page

Please convert to using our Data API. Starting early 2026 we will be migrating to: https://water.usace.army.mil with modern pages rendered in JavaScript. When this migration completes you will no longer be able to scrape this page! CWMSDataAPI (CDA)

Timeseries IDs (TSIDs)

TSIDs used from left to right in the data table
GILC.Stage.Inst.1Hour.0.Ccp-Rev
GILC.Flow.Inst.1Hour.0.Ccp-Rev
GILC.Volt-Battery Load.Inst.1Hour.0.Ccp-Rev

                            

All information presented herein is the property of the government of the United States of America and may be revised or deleted at any time without prior notice. Dissemination of this information without the expressed written consent of the Public Affairs Office, Tulsa District U.S. Army Corps of Engineers is strictly prohibited. These data are gathered electronically and, as presented, have NOT undergone any form of quality control. These data are NOT guaranteed to be valid or correct.